sensor_id;sensor_type;location;lat;lon;timestamp;P1;durP1;ratioP1;P2;durP2;ratioP2
33858;SDS011;20156;47.486;12.074;2023-02-28T00:00:19;7.07;;;6.37;;
33858;SDS011;20156;47.486;12.074;2023-02-28T00:02:45;9.97;;;6.20;;
33858;SDS011;20156;47.486;12.074;2023-02-28T00:05:12;9.07;;;6.30;;
33858;SDS011;20156;47.486;12.074;2023-02-28T00:07:39;7.43;;;6.27;;
33858;SDS011;20156;47.486;12.074;2023-02-28T00:10:05;7.37;;;6.57;;
33858;SDS011;20156;47.486;12.074;2023-02-28T00:12:33;7.23;;;6.43;;
33858;SDS011;20156;47.486;12.074;2023-02-28T00:14:59;8.03;;;6.60;;
33858;SDS011;20156;47.486;12.074;2023-02-28T00:17:25;7.53;;;6.57;;
33858;SDS011;20156;47.486;12.074;2023-02-28T00:19:50;7.20;;;6.40;;
33858;SDS011;20156;47.486;12.074;2023-02-28T00:22:16;10.27;;;6.40;;
33858;SDS011;20156;47.486;12.074;2023-02-28T00:24:44;8.90;;;6.57;;
33858;SDS011;20156;47.486;12.074;2023-02-28T00:27:10;8.57;;;6.50;;
33858;SDS011;20156;47.486;12.074;2023-02-28T00:29:36;9.00;;;6.57;;
33858;SDS011;20156;47.486;12.074;2023-02-28T00:32:01;8.77;;;7.03;;
33858;SDS011;20156;47.486;12.074;2023-02-28T00:34:27;8.23;;;6.60;;
33858;SDS011;20156;47.486;12.074;2023-02-28T00:36:53;7.47;;;6.57;;
33858;SDS011;20156;47.486;12.074;2023-02-28T00:39:20;7.17;;;6.37;;
33858;SDS011;20156;47.486;12.074;2023-02-28T00:41:46;8.90;;;6.67;;
33858;SDS011;20156;47.486;12.074;2023-02-28T00:44:11;8.40;;;7.03;;
33858;SDS011;20156;47.486;12.074;2023-02-28T00:46:37;8.37;;;6.70;;
33858;SDS011;20156;47.486;12.074;2023-02-28T00:49:02;7.10;;;6.23;;
33858;SDS011;20156;47.486;12.074;2023-02-28T00:51:28;8.67;;;6.43;;
33858;SDS011;20156;47.486;12.074;2023-02-28T00:53:54;8.43;;;6.67;;
33858;SDS011;20156;47.486;12.074;2023-02-28T00:56:19;8.13;;;6.60;;
33858;SDS011;20156;47.486;12.074;2023-02-28T00:58:45;7.97;;;6.70;;
33858;SDS011;20156;47.486;12.074;2023-02-28T01:01:10;8.00;;;6.20;;
33858;SDS011;20156;47.486;12.074;2023-02-28T01:03:36;11.43;;;7.10;;
33858;SDS011;20156;47.486;12.074;2023-02-28T01:06:01;9.10;;;7.03;;
33858;SDS011;20156;47.486;12.074;2023-02-28T01:08:27;8.37;;;6.37;;
33858;SDS011;20156;47.486;12.074;2023-02-28T01:10:52;8.63;;;6.83;;
33858;SDS011;20156;47.486;12.074;2023-02-28T01:13:18;8.17;;;7.03;;
33858;SDS011;20156;47.486;12.074;2023-02-28T01:15:51;10.47;;;7.43;;
33858;SDS011;20156;47.486;12.074;2023-02-28T01:18:20;7.97;;;6.87;;
33858;SDS011;20156;47.486;12.074;2023-02-28T01:20:46;11.80;;;7.50;;
33858;SDS011;20156;47.486;12.074;2023-02-28T01:23:13;9.13;;;7.13;;
33858;SDS011;20156;47.486;12.074;2023-02-28T01:25:38;8.30;;;7.30;;
33858;SDS011;20156;47.486;12.074;2023-02-28T01:28:04;13.53;;;7.20;;
33858;SDS011;20156;47.486;12.074;2023-02-28T01:30:30;10.83;;;7.63;;
33858;SDS011;20156;47.486;12.074;2023-02-28T01:32:56;10.17;;;7.40;;
33858;SDS011;20156;47.486;12.074;2023-02-28T01:35:21;10.50;;;7.20;;
33858;SDS011;20156;47.486;12.074;2023-02-28T01:37:47;7.67;;;6.87;;
33858;SDS011;20156;47.486;12.074;2023-02-28T01:40:12;9.00;;;7.03;;
33858;SDS011;20156;47.486;12.074;2023-02-28T01:42:38;8.73;;;6.53;;
33858;SDS011;20156;47.486;12.074;2023-02-28T01:45:06;8.93;;;6.67;;
33858;SDS011;20156;47.486;12.074;2023-02-28T01:47:43;8.47;;;6.83;;
33858;SDS011;20156;47.486;12.074;2023-02-28T01:50:12;7.40;;;6.60;;
33858;SDS011;20156;47.486;12.074;2023-02-28T01:52:42;9.17;;;8.07;;
33858;SDS011;20156;47.486;12.074;2023-02-28T01:55:08;8.80;;;7.90;;
33858;SDS011;20156;47.486;12.074;2023-02-28T01:57:41;10.97;;;8.70;;
33858;SDS011;20156;47.486;12.074;2023-02-28T02:00:12;11.13;;;7.53;;
33858;SDS011;20156;47.486;12.074;2023-02-28T02:02:43;10.00;;;8.40;;
33858;SDS011;20156;47.486;12.074;2023-02-28T02:05:15;7.43;;;6.47;;
33858;SDS011;20156;47.486;12.074;2023-02-28T02:07:45;11.80;;;7.97;;
33858;SDS011;20156;47.486;12.074;2023-02-28T02:10:18;11.23;;;9.87;;
33858;SDS011;20156;47.486;12.074;2023-02-28T02:15:30;9.67;;;7.07;;
33858;SDS011;20156;47.486;12.074;2023-02-28T02:18:02;8.43;;;7.13;;
33858;SDS011;20156;47.486;12.074;2023-02-28T02:26:13;8.17;;;7.07;;
33858;SDS011;20156;47.486;12.074;2023-02-28T02:34:23;10.83;;;7.40;;
33858;SDS011;20156;47.486;12.074;2023-02-28T02:37:14;8.80;;;6.73;;
33858;SDS011;20156;47.486;12.074;2023-02-28T02:39:59;10.93;;;8.50;;
33858;SDS011;20156;47.486;12.074;2023-02-28T02:42:39;12.43;;;8.17;;
33858;SDS011;20156;47.486;12.074;2023-02-28T02:47:38;7.63;;;6.87;;
33858;SDS011;20156;47.486;12.074;2023-02-28T02:50:05;9.57;;;7.70;;
33858;SDS011;20156;47.486;12.074;2023-02-28T02:52:39;11.00;;;8.40;;
33858;SDS011;20156;47.486;12.074;2023-02-28T02:55:08;10.83;;;7.63;;
33858;SDS011;20156;47.486;12.074;2023-02-28T02:57:38;10.23;;;7.70;;
33858;SDS011;20156;47.486;12.074;2023-02-28T03:00:11;9.50;;;7.80;;
33858;SDS011;20156;47.486;12.074;2023-02-28T03:02:39;11.03;;;7.43;;
33858;SDS011;20156;47.486;12.074;2023-02-28T03:05:07;10.23;;;8.03;;
33858;SDS011;20156;47.486;12.074;2023-02-28T03:07:40;8.73;;;7.80;;
33858;SDS011;20156;47.486;12.074;2023-02-28T03:10:25;12.10;;;8.17;;
33858;SDS011;20156;47.486;12.074;2023-02-28T03:13:00;9.73;;;7.23;;
33858;SDS011;20156;47.486;12.074;2023-02-28T03:15:32;8.50;;;7.60;;
33858;SDS011;20156;47.486;12.074;2023-02-28T03:21:16;9.10;;;7.80;;
33858;SDS011;20156;47.486;12.074;2023-02-28T03:23:46;10.33;;;8.03;;
33858;SDS011;20156;47.486;12.074;2023-02-28T03:26:24;10.20;;;8.20;;
33858;SDS011;20156;47.486;12.074;2023-02-28T03:28:54;11.53;;;8.50;;
33858;SDS011;20156;47.486;12.074;2023-02-28T03:31:54;12.30;;;8.77;;
33858;SDS011;20156;47.486;12.074;2023-02-28T03:34:29;10.67;;;8.70;;
33858;SDS011;20156;47.486;12.074;2023-02-28T03:37:07;13.07;;;9.30;;
33858;SDS011;20156;47.486;12.074;2023-02-28T03:39:42;12.90;;;9.53;;
33858;SDS011;20156;47.486;12.074;2023-02-28T03:42:11;10.67;;;8.80;;
33858;SDS011;20156;47.486;12.074;2023-02-28T03:44:53;17.87;;;11.13;;
33858;SDS011;20156;47.486;12.074;2023-02-28T03:47:30;13.70;;;10.43;;
33858;SDS011;20156;47.486;12.074;2023-02-28T03:50:01;13.17;;;9.97;;
33858;SDS011;20156;47.486;12.074;2023-02-28T03:52:37;14.27;;;10.30;;
33858;SDS011;20156;47.486;12.074;2023-02-28T03:55:13;13.60;;;10.03;;
33858;SDS011;20156;47.486;12.074;2023-02-28T03:57:54;15.70;;;10.23;;
33858;SDS011;20156;47.486;12.074;2023-02-28T04:03:08;13.30;;;9.90;;
33858;SDS011;20156;47.486;12.074;2023-02-28T04:05:33;17.93;;;11.37;;
33858;SDS011;20156;47.486;12.074;2023-02-28T04:08:15;17.37;;;10.90;;
33858;SDS011;20156;47.486;12.074;2023-02-28T04:10:40;13.63;;;11.17;;
33858;SDS011;20156;47.486;12.074;2023-02-28T04:13:10;13.43;;;10.10;;
33858;SDS011;20156;47.486;12.074;2023-02-28T04:15:35;11.83;;;10.00;;
33858;SDS011;20156;47.486;12.074;2023-02-28T04:18:01;13.53;;;9.90;;
33858;SDS011;20156;47.486;12.074;2023-02-28T04:20:27;15.87;;;10.83;;
33858;SDS011;20156;47.486;12.074;2023-02-28T04:22:52;13.70;;;10.17;;
33858;SDS011;20156;47.486;12.074;2023-02-28T04:25:18;14.73;;;9.57;;
33858;SDS011;20156;47.486;12.074;2023-02-28T04:27:43;12.73;;;9.77;;
33858;SDS011;20156;47.486;12.074;2023-02-28T04:30:10;13.40;;;10.07;;
33858;SDS011;20156;47.486;12.074;2023-02-28T04:32:36;15.43;;;11.23;;
33858;SDS011;20156;47.486;12.074;2023-02-28T04:35:01;15.53;;;11.43;;
33858;SDS011;20156;47.486;12.074;2023-02-28T04:37:27;16.07;;;10.63;;
33858;SDS011;20156;47.486;12.074;2023-02-28T04:39:53;14.20;;;10.77;;
33858;SDS011;20156;47.486;12.074;2023-02-28T04:42:19;13.93;;;10.37;;
33858;SDS011;20156;47.486;12.074;2023-02-28T04:44:45;13.47;;;10.50;;
33858;SDS011;20156;47.486;12.074;2023-02-28T04:47:12;14.03;;;10.33;;
33858;SDS011;20156;47.486;12.074;2023-02-28T04:49:37;13.20;;;10.17;;
33858;SDS011;20156;47.486;12.074;2023-02-28T04:52:03;14.70;;;10.67;;
33858;SDS011;20156;47.486;12.074;2023-02-28T04:54:29;15.67;;;11.93;;
33858;SDS011;20156;47.486;12.074;2023-02-28T04:56:54;16.73;;;10.83;;
33858;SDS011;20156;47.486;12.074;2023-02-28T04:59:20;13.30;;;10.77;;
33858;SDS011;20156;47.486;12.074;2023-02-28T05:01:46;15.60;;;11.17;;
33858;SDS011;20156;47.486;12.074;2023-02-28T05:04:13;15.67;;;11.80;;
33858;SDS011;20156;47.486;12.074;2023-02-28T05:06:38;14.30;;;10.97;;
33858;SDS011;20156;47.486;12.074;2023-02-28T05:09:04;16.40;;;10.60;;
33858;SDS011;20156;47.486;12.074;2023-02-28T05:11:33;16.50;;;12.17;;
33858;SDS011;20156;47.486;12.074;2023-02-28T05:14:00;15.77;;;11.20;;
33858;SDS011;20156;47.486;12.074;2023-02-28T05:16:30;17.63;;;12.13;;
33858;SDS011;20156;47.486;12.074;2023-02-28T05:18:56;15.93;;;11.40;;
33858;SDS011;20156;47.486;12.074;2023-02-28T05:21:26;15.93;;;11.40;;
33858;SDS011;20156;47.486;12.074;2023-02-28T05:24:00;16.57;;;11.13;;
33858;SDS011;20156;47.486;12.074;2023-02-28T05:26:27;18.07;;;11.93;;
33858;SDS011;20156;47.486;12.074;2023-02-28T05:28:54;21.27;;;12.87;;
33858;SDS011;20156;47.486;12.074;2023-02-28T05:31:19;13.40;;;10.13;;
33858;SDS011;20156;47.486;12.074;2023-02-28T05:33:45;15.33;;;10.47;;
33858;SDS011;20156;47.486;12.074;2023-02-28T05:36:11;14.80;;;10.87;;
33858;SDS011;20156;47.486;12.074;2023-02-28T05:38:36;12.13;;;10.10;;
33858;SDS011;20156;47.486;12.074;2023-02-28T05:41:06;16.37;;;11.17;;
33858;SDS011;20156;47.486;12.074;2023-02-28T05:43:34;13.83;;;10.63;;
33858;SDS011;20156;47.486;12.074;2023-02-28T05:46:02;14.93;;;10.50;;
33858;SDS011;20156;47.486;12.074;2023-02-28T05:48:28;15.60;;;11.10;;
33858;SDS011;20156;47.486;12.074;2023-02-28T05:50:54;15.47;;;10.83;;
33858;SDS011;20156;47.486;12.074;2023-02-28T05:53:19;16.10;;;10.93;;
33858;SDS011;20156;47.486;12.074;2023-02-28T05:55:45;16.17;;;11.80;;
33858;SDS011;20156;47.486;12.074;2023-02-28T05:58:11;18.10;;;12.50;;
33858;SDS011;20156;47.486;12.074;2023-02-28T06:00:36;18.20;;;12.47;;
33858;SDS011;20156;47.486;12.074;2023-02-28T06:03:01;17.90;;;12.60;;
33858;SDS011;20156;47.486;12.074;2023-02-28T06:05:27;16.87;;;12.57;;
33858;SDS011;20156;47.486;12.074;2023-02-28T06:07:53;22.50;;;13.53;;
33858;SDS011;20156;47.486;12.074;2023-02-28T06:10:18;17.90;;;12.63;;
33858;SDS011;20156;47.486;12.074;2023-02-28T06:12:44;17.87;;;12.40;;
33858;SDS011;20156;47.486;12.074;2023-02-28T06:15:13;16.93;;;11.93;;
33858;SDS011;20156;47.486;12.074;2023-02-28T06:17:40;18.70;;;12.30;;
33858;SDS011;20156;47.486;12.074;2023-02-28T06:20:06;21.00;;;13.33;;
33858;SDS011;20156;47.486;12.074;2023-02-28T06:22:33;19.07;;;13.20;;
33858;SDS011;20156;47.486;12.074;2023-02-28T06:25:00;20.97;;;15.43;;
33858;SDS011;20156;47.486;12.074;2023-02-28T06:27:25;21.77;;;15.30;;
33858;SDS011;20156;47.486;12.074;2023-02-28T06:29:53;22.13;;;15.10;;
33858;SDS011;20156;47.486;12.074;2023-02-28T06:32:19;18.00;;;12.90;;
33858;SDS011;20156;47.486;12.074;2023-02-28T06:34:45;18.10;;;12.77;;
33858;SDS011;20156;47.486;12.074;2023-02-28T06:37:10;17.20;;;12.07;;
33858;SDS011;20156;47.486;12.074;2023-02-28T06:39:36;16.80;;;12.07;;
33858;SDS011;20156;47.486;12.074;2023-02-28T06:42:02;16.93;;;11.70;;
33858;SDS011;20156;47.486;12.074;2023-02-28T06:44:27;16.07;;;11.10;;
33858;SDS011;20156;47.486;12.074;2023-02-28T06:47:00;18.20;;;11.87;;
33858;SDS011;20156;47.486;12.074;2023-02-28T06:49:33;15.67;;;11.87;;
33858;SDS011;20156;47.486;12.074;2023-02-28T06:52:01;17.27;;;12.13;;
33858;SDS011;20156;47.486;12.074;2023-02-28T06:54:27;17.50;;;11.87;;
33858;SDS011;20156;47.486;12.074;2023-02-28T06:56:52;17.60;;;11.90;;
33858;SDS011;20156;47.486;12.074;2023-02-28T06:59:19;20.60;;;14.10;;
33858;SDS011;20156;47.486;12.074;2023-02-28T07:01:45;24.60;;;14.57;;
33858;SDS011;20156;47.486;12.074;2023-02-28T07:04:11;28.03;;;17.37;;
33858;SDS011;20156;47.486;12.074;2023-02-28T07:06:38;25.07;;;16.17;;
33858;SDS011;20156;47.486;12.074;2023-02-28T07:09:03;26.33;;;17.13;;
33858;SDS011;20156;47.486;12.074;2023-02-28T07:11:30;21.67;;;14.47;;
33858;SDS011;20156;47.486;12.074;2023-02-28T07:13:55;18.43;;;13.37;;
33858;SDS011;20156;47.486;12.074;2023-02-28T07:16:21;17.80;;;12.93;;
33858;SDS011;20156;47.486;12.074;2023-02-28T07:18:47;16.57;;;12.47;;
33858;SDS011;20156;47.486;12.074;2023-02-28T07:21:13;18.37;;;12.40;;
33858;SDS011;20156;47.486;12.074;2023-02-28T07:23:39;16.27;;;11.57;;
33858;SDS011;20156;47.486;12.074;2023-02-28T07:26:07;16.13;;;12.03;;
33858;SDS011;20156;47.486;12.074;2023-02-28T07:28:36;13.87;;;10.87;;
33858;SDS011;20156;47.486;12.074;2023-02-28T07:31:05;15.37;;;11.13;;
33858;SDS011;20156;47.486;12.074;2023-02-28T07:33:31;15.80;;;11.60;;
33858;SDS011;20156;47.486;12.074;2023-02-28T07:36:04;16.77;;;12.13;;
33858;SDS011;20156;47.486;12.074;2023-02-28T07:38:35;17.20;;;12.13;;
33858;SDS011;20156;47.486;12.074;2023-02-28T07:41:02;17.10;;;12.20;;
33858;SDS011;20156;47.486;12.074;2023-02-28T07:43:31;14.47;;;11.33;;
33858;SDS011;20156;47.486;12.074;2023-02-28T07:46:04;16.40;;;11.80;;
33858;SDS011;20156;47.486;12.074;2023-02-28T07:48:31;16.97;;;11.93;;
33858;SDS011;20156;47.486;12.074;2023-02-28T07:50:57;17.03;;;11.53;;
33858;SDS011;20156;47.486;12.074;2023-02-28T07:53:24;16.83;;;12.10;;
33858;SDS011;20156;47.486;12.074;2023-02-28T07:55:50;18.73;;;12.97;;
33858;SDS011;20156;47.486;12.074;2023-02-28T07:58:15;20.37;;;11.77;;
33858;SDS011;20156;47.486;12.074;2023-02-28T08:00:42;17.63;;;12.23;;
33858;SDS011;20156;47.486;12.074;2023-02-28T08:03:13;16.57;;;11.50;;
33858;SDS011;20156;47.486;12.074;2023-02-28T08:05:39;16.37;;;11.60;;
33858;SDS011;20156;47.486;12.074;2023-02-28T08:08:06;15.87;;;11.77;;
33858;SDS011;20156;47.486;12.074;2023-02-28T08:10:32;19.03;;;13.13;;
33858;SDS011;20156;47.486;12.074;2023-02-28T08:12:57;19.40;;;13.40;;
33858;SDS011;20156;47.486;12.074;2023-02-28T08:15:23;21.03;;;13.20;;
33858;SDS011;20156;47.486;12.074;2023-02-28T08:17:48;19.37;;;12.87;;
33858;SDS011;20156;47.486;12.074;2023-02-28T08:20:14;14.63;;;10.83;;
33858;SDS011;20156;47.486;12.074;2023-02-28T08:22:39;16.57;;;11.97;;
33858;SDS011;20156;47.486;12.074;2023-02-28T08:25:05;13.53;;;11.07;;
33858;SDS011;20156;47.486;12.074;2023-02-28T08:27:32;13.73;;;11.13;;
33858;SDS011;20156;47.486;12.074;2023-02-28T08:29:57;13.33;;;10.90;;
33858;SDS011;20156;47.486;12.074;2023-02-28T08:32:22;16.13;;;11.57;;
33858;SDS011;20156;47.486;12.074;2023-02-28T08:34:48;15.60;;;10.97;;
33858;SDS011;20156;47.486;12.074;2023-02-28T08:37:13;14.60;;;10.37;;
33858;SDS011;20156;47.486;12.074;2023-02-28T08:39:39;15.03;;;11.30;;
33858;SDS011;20156;47.486;12.074;2023-02-28T08:42:04;13.17;;;10.73;;
33858;SDS011;20156;47.486;12.074;2023-02-28T08:44:30;15.20;;;11.70;;
33858;SDS011;20156;47.486;12.074;2023-02-28T08:46:55;14.00;;;10.93;;
33858;SDS011;20156;47.486;12.074;2023-02-28T08:49:21;15.40;;;10.73;;
33858;SDS011;20156;47.486;12.074;2023-02-28T08:51:46;14.03;;;11.20;;
33858;SDS011;20156;47.486;12.074;2023-02-28T08:54:11;14.00;;;11.40;;
33858;SDS011;20156;47.486;12.074;2023-02-28T08:56:37;14.97;;;12.13;;
33858;SDS011;20156;47.486;12.074;2023-02-28T08:59:03;16.73;;;12.10;;
33858;SDS011;20156;47.486;12.074;2023-02-28T09:01:29;14.00;;;12.10;;
33858;SDS011;20156;47.486;12.074;2023-02-28T09:03:56;15.80;;;12.63;;
33858;SDS011;20156;47.486;12.074;2023-02-28T09:06:23;16.93;;;13.00;;
33858;SDS011;20156;47.486;12.074;2023-02-28T09:08:50;17.13;;;12.40;;
33858;SDS011;20156;47.486;12.074;2023-02-28T09:11:16;15.40;;;12.87;;
33858;SDS011;20156;47.486;12.074;2023-02-28T09:13:43;15.13;;;13.00;;
33858;SDS011;20156;47.486;12.074;2023-02-28T09:16:10;17.97;;;13.73;;
33858;SDS011;20156;47.486;12.074;2023-02-28T09:18:37;16.33;;;12.63;;
33858;SDS011;20156;47.486;12.074;2023-02-28T09:21:05;15.53;;;13.67;;
33858;SDS011;20156;47.486;12.074;2023-02-28T09:23:36;17.13;;;13.00;;
33858;SDS011;20156;47.486;12.074;2023-02-28T09:26:03;16.77;;;13.50;;
33858;SDS011;20156;47.486;12.074;2023-02-28T09:28:29;15.37;;;13.03;;
33858;SDS011;20156;47.486;12.074;2023-02-28T09:30:54;14.30;;;11.93;;
33858;SDS011;20156;47.486;12.074;2023-02-28T09:33:21;16.97;;;12.57;;
33858;SDS011;20156;47.486;12.074;2023-02-28T09:35:50;13.90;;;11.33;;
33858;SDS011;20156;47.486;12.074;2023-02-28T09:38:22;12.67;;;10.57;;
33858;SDS011;20156;47.486;12.074;2023-02-28T09:40:51;13.93;;;11.90;;
33858;SDS011;20156;47.486;12.074;2023-02-28T09:43:38;17.60;;;12.33;;
33858;SDS011;20156;47.486;12.074;2023-02-28T09:48:52;16.20;;;14.07;;
33858;SDS011;20156;47.486;12.074;2023-02-28T09:54:00;23.40;;;19.13;;
33858;SDS011;20156;47.486;12.074;2023-02-28T09:56:32;13.93;;;12.13;;
33858;SDS011;20156;47.486;12.074;2023-02-28T10:04:48;13.77;;;12.03;;
33858;SDS011;20156;47.486;12.074;2023-02-28T10:10:02;11.27;;;8.77;;
33858;SDS011;20156;47.486;12.074;2023-02-28T10:12:38;14.07;;;11.23;;
33858;SDS011;20156;47.486;12.074;2023-02-28T10:15:12;12.27;;;10.83;;
33858;SDS011;20156;47.486;12.074;2023-02-28T10:17:41;11.50;;;9.27;;
33858;SDS011;20156;47.486;12.074;2023-02-28T10:25:19;17.97;;;16.07;;
33858;SDS011;20156;47.486;12.074;2023-02-28T10:27:47;20.30;;;13.50;;
33858;SDS011;20156;47.486;12.074;2023-02-28T10:30:12;16.90;;;14.40;;
33858;SDS011;20156;47.486;12.074;2023-02-28T10:32:45;15.67;;;13.13;;
33858;SDS011;20156;47.486;12.074;2023-02-28T10:35:16;14.23;;;12.30;;
33858;SDS011;20156;47.486;12.074;2023-02-28T10:37:53;14.50;;;11.90;;
33858;SDS011;20156;47.486;12.074;2023-02-28T10:42:55;13.17;;;11.77;;
33858;SDS011;20156;47.486;12.074;2023-02-28T10:45:21;15.73;;;13.47;;
33858;SDS011;20156;47.486;12.074;2023-02-28T10:53:54;16.60;;;14.30;;
33858;SDS011;20156;47.486;12.074;2023-02-28T10:55:59;14.97;;;13.20;;
33858;SDS011;20156;47.486;12.074;2023-02-28T10:58:28;14.20;;;11.57;;
33858;SDS011;20156;47.486;12.074;2023-02-28T11:00:53;14.27;;;11.73;;
33858;SDS011;20156;47.486;12.074;2023-02-28T11:03:29;12.40;;;11.10;;
33858;SDS011;20156;47.486;12.074;2023-02-28T11:05:57;12.60;;;10.53;;
33858;SDS011;20156;47.486;12.074;2023-02-28T11:08:23;14.53;;;11.43;;
33858;SDS011;20156;47.486;12.074;2023-02-28T11:10:59;11.90;;;10.70;;
33858;SDS011;20156;47.486;12.074;2023-02-28T11:13:32;12.07;;;10.47;;
33858;SDS011;20156;47.486;12.074;2023-02-28T11:16:01;12.03;;;10.73;;
33858;SDS011;20156;47.486;12.074;2023-02-28T11:18:43;13.27;;;11.67;;
33858;SDS011;20156;47.486;12.074;2023-02-28T11:21:29;12.87;;;11.33;;
33858;SDS011;20156;47.486;12.074;2023-02-28T11:26:54;17.63;;;11.23;;
33858;SDS011;20156;47.486;12.074;2023-02-28T11:29:39;12.77;;;10.67;;
33858;SDS011;20156;47.486;12.074;2023-02-28T11:32:25;12.77;;;11.37;;
33858;SDS011;20156;47.486;12.074;2023-02-28T11:37:36;14.53;;;11.20;;
33858;SDS011;20156;47.486;12.074;2023-02-28T11:40:02;12.10;;;10.73;;
33858;SDS011;20156;47.486;12.074;2023-02-28T11:48:17;15.67;;;10.40;;
33858;SDS011;20156;47.486;12.074;2023-02-28T11:51:05;13.40;;;10.40;;
33858;SDS011;20156;47.486;12.074;2023-02-28T11:53:45;12.57;;;9.13;;
33858;SDS011;20156;47.486;12.074;2023-02-28T12:10:44;11.00;;;8.13;;
33858;SDS011;20156;47.486;12.074;2023-02-28T12:17:11;8.60;;;7.70;;
33858;SDS011;20156;47.486;12.074;2023-02-28T12:19:36;9.07;;;8.10;;
33858;SDS011;20156;47.486;12.074;2023-02-28T12:25:00;9.53;;;8.53;;
33858;SDS011;20156;47.486;12.074;2023-02-28T12:27:44;11.17;;;9.63;;
33858;SDS011;20156;47.486;12.074;2023-02-28T12:30:28;10.97;;;9.50;;
33858;SDS011;20156;47.486;12.074;2023-02-28T12:35:34;10.90;;;9.73;;
33858;SDS011;20156;47.486;12.074;2023-02-28T12:38:10;12.13;;;9.87;;
33858;SDS011;20156;47.486;12.074;2023-02-28T12:40:45;12.33;;;10.47;;
33858;SDS011;20156;47.486;12.074;2023-02-28T12:43:16;11.90;;;10.27;;
33858;SDS011;20156;47.486;12.074;2023-02-28T12:45:48;12.33;;;10.73;;
33858;SDS011;20156;47.486;12.074;2023-02-28T12:48:21;13.10;;;11.23;;
33858;SDS011;20156;47.486;12.074;2023-02-28T12:50:52;12.27;;;10.07;;
33858;SDS011;20156;47.486;12.074;2023-02-28T12:53:26;14.20;;;10.17;;
33858;SDS011;20156;47.486;12.074;2023-02-28T13:09:34;12.63;;;10.57;;
33858;SDS011;20156;47.486;12.074;2023-02-28T13:11:59;12.30;;;10.77;;
33858;SDS011;20156;47.486;12.074;2023-02-28T13:14:29;12.77;;;10.60;;
33858;SDS011;20156;47.486;12.074;2023-02-28T13:19:24;13.20;;;11.10;;
33858;SDS011;20156;47.486;12.074;2023-02-28T13:21:52;12.03;;;10.00;;
33858;SDS011;20156;47.486;12.074;2023-02-28T13:27:11;14.70;;;11.40;;
33858;SDS011;20156;47.486;12.074;2023-02-28T13:29:40;12.67;;;10.60;;
33858;SDS011;20156;47.486;12.074;2023-02-28T13:34:35;11.43;;;10.23;;
33858;SDS011;20156;47.486;12.074;2023-02-28T13:39:47;12.70;;;10.57;;
33858;SDS011;20156;47.486;12.074;2023-02-28T13:45:29;11.77;;;10.40;;
33858;SDS011;20156;47.486;12.074;2023-02-28T14:04:08;16.77;;;12.87;;
33858;SDS011;20156;47.486;12.074;2023-02-28T14:07:05;15.50;;;12.00;;
33858;SDS011;20156;47.486;12.074;2023-02-28T14:09:40;14.23;;;12.40;;
33858;SDS011;20156;47.486;12.074;2023-02-28T14:18:25;15.77;;;13.57;;
33858;SDS011;20156;47.486;12.074;2023-02-28T14:20:54;14.77;;;12.93;;
33858;SDS011;20156;47.486;12.074;2023-02-28T14:32:02;15.27;;;12.97;;
33858;SDS011;20156;47.486;12.074;2023-02-28T14:34:39;15.83;;;13.53;;
33858;SDS011;20156;47.486;12.074;2023-02-28T14:37:15;15.10;;;12.43;;
33858;SDS011;20156;47.486;12.074;2023-02-28T14:39:44;17.50;;;13.83;;
33858;SDS011;20156;47.486;12.074;2023-02-28T14:42:30;15.70;;;13.67;;
33858;SDS011;20156;47.486;12.074;2023-02-28T14:44:58;16.57;;;13.63;;
33858;SDS011;20156;47.486;12.074;2023-02-28T14:47:41;16.90;;;14.77;;
33858;SDS011;20156;47.486;12.074;2023-02-28T14:50:17;17.73;;;14.00;;
33858;SDS011;20156;47.486;12.074;2023-02-28T14:52:45;16.70;;;13.23;;
33858;SDS011;20156;47.486;12.074;2023-02-28T14:55:12;18.63;;;15.03;;
33858;SDS011;20156;47.486;12.074;2023-02-28T14:57:49;19.20;;;15.13;;
33858;SDS011;20156;47.486;12.074;2023-02-28T15:00:26;20.40;;;15.37;;
33858;SDS011;20156;47.486;12.074;2023-02-28T15:02:56;19.67;;;15.33;;
33858;SDS011;20156;47.486;12.074;2023-02-28T15:05:30;22.73;;;16.87;;
33858;SDS011;20156;47.486;12.074;2023-02-28T15:08:11;25.37;;;15.30;;
33858;SDS011;20156;47.486;12.074;2023-02-28T15:13:20;20.27;;;16.00;;
33858;SDS011;20156;47.486;12.074;2023-02-28T15:15:55;22.57;;;16.10;;
33858;SDS011;20156;47.486;12.074;2023-02-28T15:18:40;19.07;;;16.00;;
33858;SDS011;20156;47.486;12.074;2023-02-28T15:21:12;20.90;;;18.03;;
33858;SDS011;20156;47.486;12.074;2023-02-28T15:23:41;22.07;;;16.37;;
33858;SDS011;20156;47.486;12.074;2023-02-28T15:26:12;19.63;;;15.83;;
33858;SDS011;20156;47.486;12.074;2023-02-28T15:28:44;19.73;;;16.10;;
33858;SDS011;20156;47.486;12.074;2023-02-28T15:31:18;21.03;;;15.80;;
33858;SDS011;20156;47.486;12.074;2023-02-28T15:33:57;19.30;;;15.73;;
33858;SDS011;20156;47.486;12.074;2023-02-28T15:36:29;23.07;;;16.63;;
33858;SDS011;20156;47.486;12.074;2023-02-28T15:38:56;19.30;;;15.70;;
33858;SDS011;20156;47.486;12.074;2023-02-28T15:41:26;18.63;;;15.53;;
33858;SDS011;20156;47.486;12.074;2023-02-28T15:47:02;20.80;;;16.20;;
33858;SDS011;20156;47.486;12.074;2023-02-28T15:49:33;17.73;;;15.30;;
33858;SDS011;20156;47.486;12.074;2023-02-28T15:52:13;21.93;;;16.03;;
33858;SDS011;20156;47.486;12.074;2023-02-28T15:54:42;18.00;;;15.53;;
33858;SDS011;20156;47.486;12.074;2023-02-28T15:57:20;21.17;;;16.33;;
33858;SDS011;20156;47.486;12.074;2023-02-28T15:59:50;20.30;;;15.83;;
33858;SDS011;20156;47.486;12.074;2023-02-28T16:02:20;20.40;;;15.53;;
33858;SDS011;20156;47.486;12.074;2023-02-28T16:07:31;20.13;;;15.70;;
33858;SDS011;20156;47.486;12.074;2023-02-28T16:09:58;17.77;;;15.73;;
33858;SDS011;20156;47.486;12.074;2023-02-28T16:12:30;22.30;;;16.53;;
33858;SDS011;20156;47.486;12.074;2023-02-28T16:14:59;20.93;;;16.43;;
33858;SDS011;20156;47.486;12.074;2023-02-28T16:17:33;21.53;;;15.80;;
33858;SDS011;20156;47.486;12.074;2023-02-28T16:20:05;20.27;;;16.63;;
33858;SDS011;20156;47.486;12.074;2023-02-28T16:22:38;24.33;;;17.30;;
33858;SDS011;20156;47.486;12.074;2023-02-28T16:25:04;20.73;;;16.83;;
33858;SDS011;20156;47.486;12.074;2023-02-28T16:27:34;21.27;;;16.17;;
33858;SDS011;20156;47.486;12.074;2023-02-28T16:30:03;23.20;;;17.33;;
33858;SDS011;20156;47.486;12.074;2023-02-28T16:32:31;21.90;;;16.93;;
33858;SDS011;20156;47.486;12.074;2023-02-28T16:35:00;22.00;;;17.57;;
33858;SDS011;20156;47.486;12.074;2023-02-28T16:37:26;24.93;;;16.90;;
33858;SDS011;20156;47.486;12.074;2023-02-28T16:39:52;26.37;;;17.57;;
33858;SDS011;20156;47.486;12.074;2023-02-28T16:42:23;22.40;;;17.27;;
33858;SDS011;20156;47.486;12.074;2023-02-28T16:44:52;20.70;;;16.87;;
33858;SDS011;20156;47.486;12.074;2023-02-28T16:47:18;22.80;;;17.30;;
33858;SDS011;20156;47.486;12.074;2023-02-28T16:49:44;22.33;;;17.73;;
33858;SDS011;20156;47.486;12.074;2023-02-28T16:52:10;20.70;;;15.97;;
33858;SDS011;20156;47.486;12.074;2023-02-28T16:54:37;23.93;;;17.80;;
33858;SDS011;20156;47.486;12.074;2023-02-28T16:57:04;22.90;;;17.83;;